Accueil
METAR-TAF:

METAR-TAF

Aéroports :

Wittering, Angleterre

latitude: 52-37N, longitude: 000-28W, altitude: 84 m

Observation

Le bulletin a été fait il y a 1 heure et 31 minutes, à 13:50 UTC
Vent 8 kt de ouest/nord-ouest
Température 8°C
Humidité 76%
Pression 1035 hPa
Visibilité 10 km ou plus

METAR: EGXT 221350Z AUTO 29008KT 9999 NCD 08/04 Q1035

Heure: 15:21 (15:21 UTC)

Prévision

Le bulletin a été fait il y a 25 heures et 44 minutes, à 13:37 UTC
Prévision valable du 21 à 15 UTC au 21 à 18 UTC
Vent 7 kt de ouest
Visibilité 10 km ou plus
Quelques nuages à une hauteur de 1800 ft
Temporairement
du 21 à 15 UTC au 21 à 18 UTC
Nuages épars à une hauteur de 1800 ft

TAF: EGXT 211337Z 2115/2118 28007KT 9999 FEW018 TEMPO 2115/2118 SCT018

Observations et prévisions météorologiques de plus de 4000 aéroports (messages METAR et TAF).

Les stations disponibles sont représentées par des disques jaunes et rouges sur la carte.

Passer la souris dessus pour voir le nom de la station.

Cliquer dessus pour voir les observations et prévisions météorologiques.

Pour changer de carte: cliquez sur les boutons verts avec une croix noire pour zoomer, sur le bouton vert avec un tiret pour effectuer un zoom arrière, ou sur les flèches vertes pour les cartes adjacentes.


METAR-TAF: